Time;durP1;ratioP1;P1;durP2;ratioP2;P2;SDS_P1;SDS_P2;PMS_P1;PMS_P2;Temp;Humidity;BMP_temperature;BMP_pressure;BME280_temperature;BME280_humidity;BME280_pressure;Samples;Min_cycle;Max_cycle;Signal;HPM_P1;HPM_P2
2022/03/18 00:01:18;;;;;;;38.75;18.42;;;;;;;8.84;55.98;100424.25;4486359;32;20101;-83
2022/03/18 00:03:44;;;;;;;40.40;18.85;;;;;;;8.80;55.98;100418.22;4475363;31;20120;-82
2022/03/18 00:06:10;;;;;;;35.85;18.25;;;;;;;8.78;56.03;100432.28;4503197;31;20106;-83
2022/03/18 00:08:35;;;;;;;36.30;17.40;;;;;;;8.72;56.18;100429.78;4475412;31;20084;-83
2022/03/18 00:11:02;;;;;;;39.70;18.08;;;;;;;8.71;56.35;100443.81;4501730;31;20097;-82
2022/03/18 00:13:27;;;;;;;37.53;17.98;;;;;;;8.67;56.56;100443.00;4502537;31;20096;-82
2022/03/18 00:15:54;;;;;;;39.83;18.55;;;;;;;8.68;56.67;100431.59;4475352;31;20423;-83
2022/03/18 00:18:19;;;;;;;39.15;19.05;;;;;;;8.67;56.75;100432.50;4488892;31;20408;-83
2022/03/18 00:20:45;;;;;;;40.20;18.33;;;;;;;8.62;56.92;100435.22;4502784;31;20106;-83
2022/03/18 00:23:13;;;;;;;37.45;18.08;;;;;;;8.66;57.02;100443.91;4502871;31;20112;-82
2022/03/18 00:25:38;;;;;;;;;;;;;;;8.65;57.14;100440.44;4489223;31;20587;-82
2022/03/18 00:28:04;;;;;;;35.80;17.15;;;;;;;8.66;57.24;100438.66;4502938;31;19994;-81
2022/03/18 00:30:29;;;;;;;38.80;18.10;;;;;;;8.70;57.20;100440.31;4488420;31;20149;-82
2022/03/18 00:32:55;;;;;;;41.08;20.00;;;;;;;8.64;57.39;100446.56;4491775;31;20085;-82
2022/03/18 00:35:20;;;;;;;39.42;20.12;;;;;;;8.67;57.40;100440.37;4486944;31;20468;-84
2022/03/18 00:37:46;;;;;;;39.95;18.73;;;;;;;8.62;57.56;100450.13;4485791;32;20084;-83
2022/03/18 00:40:11;;;;;;;42.83;19.55;;;;;;;8.66;57.52;100459.69;4486988;31;20084;-82
2022/03/18 00:42:37;;;;;;;38.28;19.35;;;;;;;8.64;57.46;100450.97;4486425;32;20132;-81
2022/03/18 00:45:04;;;;;;;37.53;18.25;;;;;;;8.69;57.27;100461.38;4487153;31;20080;-81
2022/03/18 00:52:58;;;;;;;38.03;18.15;;;;;;;8.60;57.01;100462.44;4486972;32;20486;-82
2022/03/18 00:55:24;;;;;;;36.45;17.98;;;;;;;8.58;57.11;100467.72;4485662;32;20104;-81
2022/03/18 00:57:49;;;;;;;39.42;18.33;;;;;;;8.61;57.04;100464.16;4472121;32;20165;-81
2022/03/18 01:00:15;;;;;;;40.10;19.80;;;;;;;8.58;57.12;100475.59;4486930;31;20103;-82
2022/03/18 01:02:41;;;;;;;41.35;19.95;;;;;;;8.55;57.19;100470.38;4487599;31;20080;-81
2022/03/18 01:05:07;;;;;;;42.17;19.98;;;;;;;8.57;57.09;100473.84;4487093;31;20141;-82
2022/03/18 01:07:32;;;;;;;39.22;19.95;;;;;;;8.53;57.19;100473.94;4485760;32;20123;-81
2022/03/18 01:09:58;;;;;;;40.12;19.15;;;;;;;8.49;57.17;100472.28;4485733;32;20100;-81
2022/03/18 01:12:24;;;;;;;40.53;19.77;;;;;;;8.56;56.98;100471.28;4485798;32;20184;-82
2022/03/18 01:14:49;;;;;;;39.83;20.17;;;;;;;8.57;56.75;100470.34;4486911;31;20171;-81
2022/03/18 01:17:15;;;;;;;40.63;20.20;;;;;;;8.55;56.70;100464.28;4472237;32;20101;-82
2022/03/18 01:19:41;;;;;;;42.50;20.60;;;;;;;8.55;56.61;100469.53;4486927;31;20092;-81
2022/03/18 01:22:09;;;;;;;44.30;23.65;;;;;;;8.54;56.64;100467.81;4485494;32;20112;-82
2022/03/18 01:24:35;;;;;;;47.70;24.75;;;;;;;8.44;56.83;100464.47;4486785;31;20119;-82
2022/03/18 01:27:02;;;;;;;50.85;25.70;;;;;;;8.34;57.11;100462.88;4486989;31;20092;-83
2022/03/18 01:29:27;;;;;;;47.75;25.40;;;;;;;8.38;57.20;100462.81;4486566;31;20169;-81
2022/03/18 01:31:52;;;;;;;48.25;25.17;;;;;;;8.37;57.30;100468.09;4487438;31;20112;-82
2022/03/18 01:34:18;;;;;;;50.38;26.20;;;;;;;8.42;57.09;100474.13;4472426;32;20425;-82
2022/03/18 01:36:44;;;;;;;54.47;26.92;;;;;;;8.33;57.25;100463.78;4486440;31;20491;-83
2022/03/18 01:39:09;;;;;;;48.50;26.30;;;;;;;8.35;57.20;100473.38;4486507;31;20148;-83
2022/03/18 01:41:34;;;;;;;51.67;26.20;;;;;;;8.34;57.23;100476.88;4486486;31;20088;-83
2022/03/18 01:44:00;;;;;;;51.08;26.73;;;;;;;8.29;57.24;100481.34;4486548;31;20060;-83
2022/03/18 01:46:26;;;;;;;51.15;27.10;;;;;;;8.28;57.21;100479.59;4486426;32;20103;-83
2022/03/18 01:48:52;;;;;;;46.67;25.08;;;;;;;8.32;56.95;100491.78;4487224;31;20088;-83
2022/03/18 01:51:18;;;;;;;50.90;26.62;;;;;;;8.30;56.60;100493.56;4486364;31;20459;-84
2022/03/18 01:53:44;;;;;;;49.92;25.35;;;;;;;8.42;56.06;100492.50;4485176;31;20110;-83
2022/03/18 01:56:10;;;;;;;54.85;26.67;;;;;;;8.10;56.17;100490.44;4485222;32;20052;-82
2022/03/18 01:58:36;;;;;;;48.65;24.60;;;;;;;8.27;55.55;100491.88;4485054;32;20162;-81
2022/03/18 02:01:02;;;;;;;49.53;26.50;;;;;;;8.35;55.20;100491.75;4485660;31;20586;-81
2022/03/18 02:03:27;;;;;;;47.08;25.27;;;;;;;8.37;54.62;100491.72;4459272;32;20119;-81
2022/03/18 02:05:53;;;;;;;45.92;24.35;;;;;;;8.39;54.25;100497.81;4499733;31;20077;-81
2022/03/18 02:08:20;;;;;;;49.90;25.20;;;;;;;8.47;53.96;100503.81;4487596;31;20127;-81
2022/03/18 02:10:46;;;;;;;48.55;25.55;;;;;;;8.38;54.03;100502.19;4487917;31;20160;-81
2022/03/18 02:13:12;;;;;;;48.83;26.15;;;;;;;8.46;53.93;100502.97;4474422;31;20104;-83
2022/03/18 02:15:37;;;;;;;46.25;25.30;;;;;;;8.46;53.57;100507.34;4487560;31;20076;-82
2022/03/18 02:18:04;;;;;;;50.67;26.05;;;;;;;8.59;53.24;100506.19;4501948;31;20134;-82
2022/03/18 02:20:31;;;;;;;49.65;26.25;;;;;;;8.63;52.71;100512.28;4487630;31;20152;-82
2022/03/18 02:22:57;;;;;;;53.42;26.40;;;;;;;8.69;52.39;100525.28;4501783;31;20473;-82
2022/03/18 02:25:22;;;;;;;50.17;26.12;;;;;;;8.73;52.42;100524.34;4474142;31;20140;-83
2022/03/18 02:28:02;;;;;;;47.70;25.83;;;;;;;8.81;52.68;100525.06;4487385;31;20132;-84
2022/03/18 02:30:32;;;;;;;50.53;27.37;;;;;;;8.78;52.95;100525.13;4487362;31;20088;-81
2022/03/18 02:32:58;;;;;;;45.97;25.42;;;;;;;8.81;53.13;100530.31;4473284;31;20163;-82
2022/03/18 02:35:24;;;;;;;46.13;25.05;;;;;;;8.87;51.60;100529.34;4471420;32;20107;-82
2022/03/18 02:37:50;;;;;;;44.95;22.37;;;;;;;8.82;51.21;100536.44;4484739;32;20097;-82
2022/03/18 02:40:15;;;;;;;39.97;20.55;;;;;;;8.78;50.92;100533.00;4484871;32;20105;-82
2022/03/18 02:42:42;;;;;;;36.58;19.58;;;;;;;8.69;48.79;100538.41;4484601;32;20096;-81
2022/03/18 02:45:08;;;;;;;34.67;18.62;;;;;;;8.72;44.99;100532.25;4484677;32;20077;-81
2022/03/18 02:47:34;;;;;;;37.70;18.65;;;;;;;8.71;45.42;100541.03;4484629;32;20534;-83
2022/03/18 02:49:59;;;;;;;33.47;18.58;;;;;;;8.69;44.00;100538.41;4484758;32;20230;-82
2022/03/18 02:52:25;;;;;;;38.63;18.90;;;;;;;8.65;42.88;100547.25;4485897;32;20088;-82
2022/03/18 02:54:50;;;;;;;33.15;17.05;;;;;;;8.49;43.58;100551.06;4485826;32;20069;-82
2022/03/18 02:57:16;;;;;;;29.95;14.52;;;;;;;8.25;43.61;100561.94;4484473;32;20122;-82
2022/03/18 02:59:41;;;;;;;32.95;16.67;;;;;;;8.11;41.27;100565.66;4486246;31;20145;-82
2022/03/18 03:02:07;;;;;;;30.37;15.27;;;;;;;8.16;41.37;100566.47;4485709;31;20108;-82
2022/03/18 03:04:32;;;;;;;32.78;16.90;;;;;;;8.06;41.11;100573.63;4484878;32;20107;-82
2022/03/18 03:09:42;;;;;;;33.28;15.52;;;;;;;8.11;39.23;100573.53;4486734;32;20127;-81
2022/03/18 03:12:07;;;;;;;31.70;15.07;;;;;;;8.02;39.81;100578.06;4486453;32;20435;-82
2022/03/18 03:14:32;;;;;;;30.90;15.30;;;;;;;8.02;40.62;100577.19;4488803;31;20088;-82
2022/03/18 03:16:58;;;;;;;30.48;15.40;;;;;;;8.02;40.55;100578.06;4501986;31;20372;-83
2022/03/18 03:19:23;;;;;;;28.67;14.40;;;;;;;8.01;40.56;100580.69;4490740;31;20142;-82
2022/03/18 03:21:49;;;;;;;31.95;15.25;;;;;;;7.98;40.58;100580.75;4503337;31;20102;-82
2022/03/18 03:24:14;;;;;;;30.52;15.77;;;;;;;7.96;40.06;100583.41;4503266;31;20088;-83
2022/03/18 03:26:39;;;;;;;30.77;15.00;;;;;;;8.00;39.29;100587.72;4502451;31;20088;-82
2022/03/18 03:29:05;;;;;;;28.87;14.13;;;;;;;7.98;40.03;100591.25;4488233;31;20127;-81
2022/03/18 03:31:30;;;;;;;29.35;14.55;;;;;;;8.05;38.99;100593.75;4488719;31;20114;-81
2022/03/18 03:33:56;;;;;;;28.73;14.15;;;;;;;7.95;39.28;100600.03;4503314;31;20132;-81
2022/03/18 03:36:23;;;;;;;30.55;14.32;;;;;;;7.98;39.36;100607.84;4503481;31;20435;-80
2022/03/18 03:38:48;;;;;;;29.10;13.43;;;;;;;8.00;39.08;100602.59;4503392;31;20826;-82
2022/03/18 03:41:14;;;;;;;27.92;13.90;;;;;;;8.03;38.54;100600.75;4488824;31;20100;-82
2022/03/18 03:43:39;;;;;;;26.02;12.55;;;;;;;8.04;38.76;100602.50;4475770;31;20408;-81
2022/03/18 03:46:05;;;;;;;25.70;11.95;;;;;;;8.11;38.23;100615.53;4488921;31;20463;-81
2022/03/18 03:48:31;;;;;;;28.02;12.55;;;;;;;8.04;37.46;100612.16;4503097;31;20097;-81
2022/03/18 03:50:56;;;;;;;28.80;13.15;;;;;;;8.13;37.71;100627.78;4488928;31;20140;-81
2022/03/18 03:53:22;;;;;;;26.15;12.88;;;;;;;8.11;37.40;100620.78;4503098;31;20084;-81
2022/03/18 03:55:47;;;;;;;26.60;13.07;;;;;;;8.05;37.43;100629.63;4488843;31;20521;-80
2022/03/18 03:58:13;;;;;;;27.02;12.90;;;;;;;8.11;36.76;100626.03;4488747;31;20096;-81
2022/03/18 04:00:38;;;;;;;27.10;12.35;;;;;;;8.03;37.01;100629.63;4502221;31;20110;-81
2022/03/18 04:03:04;;;;;;;22.90;11.52;;;;;;;8.03;36.80;100626.16;4487713;31;20146;-83
2022/03/18 04:05:31;;;;;;;25.67;12.57;;;;;;;7.97;36.08;100627.09;4486209;32;20541;-82
2022/03/18 04:07:56;;;;;;;24.33;11.65;;;;;;;7.96;36.83;100632.38;4487800;31;20100;-81
2022/03/18 04:10:22;;;;;;;27.00;12.80;;;;;;;7.98;37.71;100634.09;4488775;31;20124;-81
2022/03/18 04:12:47;;;;;;;26.90;12.18;;;;;;;7.90;37.63;100637.72;4488642;31;20121;-81
2022/03/18 04:15:13;;;;;;;26.05;11.88;;;;;;;7.94;37.10;100645.53;4503005;31;20389;-81
2022/03/18 04:17:43;;;;;;;23.42;11.45;;;;;;;7.95;36.94;100641.16;4502204;31;20136;-81
2022/03/18 04:20:11;;;;;;;24.48;11.43;;;;;;;7.95;37.29;100643.78;4489042;31;20080;-81
2022/03/18 04:22:38;;;;;;;24.05;11.15;;;;;;;7.93;37.04;100641.16;4475336;31;20544;-82
2022/03/18 04:25:04;;;;;;;24.17;11.63;;;;;;;7.91;37.31;100647.34;4488684;31;20095;-82
2022/03/18 04:27:29;;;;;;;24.45;11.05;;;;;;;7.90;37.17;100642.97;4475242;31;20424;-81
2022/03/18 04:29:55;;;;;;;21.77;10.82;;;;;;;7.90;36.86;100649.09;4480289;32;20115;-81
2022/03/18 04:32:20;;;;;;;22.75;10.43;;;;;;;7.80;37.61;100655.34;4472942;32;20425;-82
2022/03/18 04:34:45;;;;;;;25.05;11.65;;;;;;;7.78;37.57;100660.59;4473504;32;20126;-82
2022/03/18 04:37:11;;;;;;;25.42;11.38;;;;;;;7.79;36.84;100661.50;4472790;32;20118;-82
2022/03/18 04:39:36;;;;;;;23.15;10.93;;;;;;;7.74;36.23;100658.91;4487019;32;20084;-81
2022/03/18 04:42:02;;;;;;;20.75;9.93;;;;;;;7.68;36.13;100656.38;4501011;31;20118;-81
2022/03/18 04:44:27;;;;;;;19.60;9.80;;;;;;;7.73;35.21;100659.81;4488622;31;20501;-81
2022/03/18 04:46:53;;;;;;;20.92;9.60;;;;;;;7.71;35.67;100671.19;4502905;31;20136;-81
2022/03/18 04:49:18;;;;;;;21.65;10.32;;;;;;;7.71;35.35;100673.81;4502859;31;20084;-81
2022/03/18 04:51:44;;;;;;;23.70;9.40;;;;;;;7.74;34.91;100673.78;4488441;31;20211;-81
2022/03/18 04:54:09;;;;;;;24.10;10.38;;;;;;;7.74;34.59;100679.88;4488591;31;20120;-82
2022/03/18 04:59:19;;;;;;;21.62;9.48;;;;;;;7.81;34.54;100692.06;4502380;31;20110;-82
2022/03/18 05:01:46;;;;;;;20.98;9.93;;;;;;;7.75;33.98;100692.13;4502715;31;20107;-81
2022/03/18 05:04:11;;;;;;;21.00;9.63;;;;;;;7.73;34.13;100695.69;4502521;31;20433;-81
2022/03/18 05:06:37;;;;;;;19.10;8.95;;;;;;;7.77;33.78;100695.59;4502773;31;20099;-81
2022/03/18 05:09:02;;;;;;;22.83;9.73;;;;;;;7.73;33.33;100701.78;4502337;31;20107;-81
2022/03/18 05:11:28;;;;;;;21.60;9.50;;;;;;;7.73;33.58;100709.66;4472610;32;20127;-81
2022/03/18 05:13:54;;;;;;;21.20;10.20;;;;;;;7.68;33.41;100708.81;4486943;32;20112;-82
2022/03/18 05:16:20;;;;;;;22.40;9.55;;;;;;;7.66;33.60;100707.97;4486652;32;20141;-82
2022/03/18 05:18:46;;;;;;;21.27;8.82;;;;;;;7.70;33.62;100708.81;4486864;32;20089;-81
2022/03/18 05:21:11;;;;;;;20.75;9.65;;;;;;;7.73;33.15;100711.41;4486720;32;20215;-81
2022/03/18 05:23:37;;;;;;;20.08;9.18;;;;;;;7.70;33.10;100716.69;4486499;32;20111;-81
2022/03/18 05:26:03;;;;;;;19.20;9.68;;;;;;;7.70;33.28;100711.44;4486815;32;20076;-82
2022/03/18 05:28:30;;;;;;;20.33;9.10;;;;;;;7.67;33.13;100713.22;4486661;32;20084;-81
2022/03/18 05:30:57;;;;;;;21.33;9.77;;;;;;;7.78;32.66;100709.59;4486790;32;20138;-81
2022/03/18 05:33:23;;;;;;;20.33;9.13;;;;;;;7.74;32.97;100721.00;4472180;32;20127;-81
2022/03/18 05:35:49;;;;;;;20.67;9.70;;;;;;;7.74;32.77;100714.00;4486708;32;20352;-82
2022/03/18 05:38:14;;;;;;;19.48;8.70;;;;;;;7.78;32.12;100720.94;4489116;31;20103;-81
2022/03/18 05:40:39;;;;;;;17.85;8.52;;;;;;;7.64;31.57;100726.34;4487654;31;20135;-80
2022/03/18 05:43:05;;;;;;;20.02;9.30;;;;;;;7.52;32.20;100717.78;4502469;31;20112;-80
2022/03/18 05:45:30;;;;;;;19.30;8.80;;;;;;;7.54;32.51;100727.34;4488001;31;20123;-81
2022/03/18 05:47:56;;;;;;;21.15;8.68;;;;;;;7.55;32.07;100733.47;4502133;31;20390;-83
2022/03/18 05:50:21;;;;;;;23.20;8.95;;;;;;;7.64;31.66;100731.59;4502535;31;20080;-83
2022/03/18 05:52:47;;;;;;;19.08;8.30;;;;;;;7.61;31.75;100728.13;4502260;31;20092;-82
2022/03/18 05:55:12;;;;;;;20.15;8.40;;;;;;;7.62;31.93;100735.13;4502182;31;20088;-83
2022/03/18 05:57:38;;;;;;;19.52;8.30;;;;;;;7.68;31.78;100745.56;4502128;31;20108;-79
2022/03/18 06:00:04;;;;;;;22.37;9.20;;;;;;;7.73;31.44;100745.53;4487806;31;20129;-81
2022/03/18 06:02:30;;;;;;;19.52;8.40;;;;;;;7.80;31.40;100748.06;4487015;31;20135;-81
2022/03/18 06:04:55;;;;;;;19.27;8.18;;;;;;;7.89;31.41;100752.31;4487798;31;20104;-81
2022/03/18 06:07:21;;;;;;;19.50;7.95;;;;;;;7.89;31.79;100754.94;4501953;31;20088;-82
2022/03/18 06:12:30;;;;;;;19.67;8.43;;;;;;;7.97;31.34;100760.94;4501084;31;20135;-80
2022/03/18 06:14:55;;;;;;;17.67;8.07;;;;;;;8.07;31.44;100754.72;4490568;31;20460;-80
2022/03/18 06:17:21;;;;;;;20.75;8.25;;;;;;;8.02;31.91;100758.28;4485188;32;20080;-80
2022/03/18 06:19:46;;;;;;;18.35;8.32;;;;;;;8.16;30.88;100761.59;4481557;32;20088;-80
2022/03/18 06:22:11;;;;;;;21.70;8.55;;;;;;;8.21;30.16;100758.94;4471480;32;20089;-81
2022/03/18 06:24:37;;;;;;;19.17;8.10;;;;;;;8.15;30.21;100767.75;4485773;32;20089;-79
2022/03/18 06:27:04;;;;;;;20.20;8.32;;;;;;;8.21;30.48;100774.69;4471753;32;20374;-79
2022/03/18 06:29:30;;;;;;;20.23;8.48;;;;;;;8.08;30.75;100766.94;4471910;32;20088;-78
2022/03/18 06:31:56;;;;;;;20.48;8.45;;;;;;;8.12;30.39;100769.53;4472015;32;20092;-80
2022/03/18 06:34:22;;;;;;;17.50;7.75;;;;;;;8.20;30.16;100779.03;4458843;32;20179;-80
2022/03/18 06:36:48;;;;;;;19.35;8.15;;;;;;;8.26;29.76;100783.34;4471794;32;20084;-80
2022/03/18 06:39:14;;;;;;;16.95;8.05;;;;;;;8.22;29.98;100782.50;4471761;32;20109;-80
2022/03/18 06:41:40;;;;;;;18.23;7.85;;;;;;;8.26;29.72;100786.84;4473158;32;20150;-79
2022/03/18 06:44:08;;;;;;;18.90;8.68;;;;;;;8.28;29.98;100785.06;4473596;32;20104;-78
2022/03/18 06:46:35;;;;;;;20.17;8.90;;;;;;;8.43;29.63;100785.78;4474121;32;20106;-79
2022/03/18 06:49:00;;;;;;;17.62;7.47;;;;;;;8.51;30.28;100789.16;4473678;31;20102;-80
2022/03/18 06:51:26;;;;;;;19.05;8.55;;;;;;;8.48;29.92;100791.84;4503465;31;20096;-79
2022/03/18 06:53:51;;;;;;;22.33;9.05;;;;;;;8.54;29.86;100789.13;4503711;31;20108;-79
2022/03/18 06:56:16;;;;;;;18.80;8.23;;;;;;;8.66;28.93;100795.97;4503621;31;20088;-80
2022/03/18 06:58:43;;;;;;;19.10;8.48;;;;;;;8.54;29.40;100801.41;4484727;32;20088;-80
2022/03/18 07:01:09;;;;;;;19.77;8.80;;;;;;;8.54;29.74;100798.78;4465394;31;20108;-78
2022/03/18 07:03:35;;;;;;;17.02;8.15;;;;;;;8.64;29.10;100798.63;4488358;31;20100;-79
2022/03/18 07:06:01;;;;;;;17.87;7.80;;;;;;;8.53;29.47;100802.28;4489917;31;20471;-80
2022/03/18 07:08:26;;;;;;;21.42;8.68;;;;;;;8.55;29.22;100805.75;4490839;31;20084;-75
2022/03/18 07:10:52;;;;;;;18.98;8.50;;;;;;;8.61;29.00;100805.66;4498777;31;20427;-76
2022/03/18 07:13:17;;;;;;;18.85;7.95;;;;;;;8.72;28.96;100797.66;4483301;31;20111;-79
2022/03/18 07:15:43;;;;;;;19.98;9.27;;;;;;;8.70;29.35;100802.06;4487463;31;20153;-79
2022/03/18 07:18:08;;;;;;;19.37;8.80;;;;;;;8.91;28.68;100801.72;4485984;31;20088;-77
2022/03/18 07:20:36;;;;;;;19.08;8.38;;;;;;;8.91;28.78;100806.13;4501327;31;20192;-78
2022/03/18 07:23:07;;;;;;;20.65;8.63;;;;;;;9.03;28.83;100813.81;4487495;31;20155;-82
2022/03/18 07:25:39;;;;;;;19.42;7.97;;;;;;;9.09;28.90;100812.84;4488514;31;20454;-78
2022/03/18 07:28:08;;;;;;;18.17;8.55;;;;;;;9.04;28.88;100821.69;4491278;31;20451;-77
2022/03/18 07:30:34;;;;;;;19.40;8.93;;;;;;;9.11;28.92;100821.59;4485977;32;20097;-78
2022/03/18 07:33:00;;;;;;;20.48;8.75;;;;;;;9.15;28.57;100824.13;4485849;32;20112;-77
2022/03/18 07:35:25;;;;;;;17.48;8.68;;;;;;;9.30;28.16;100827.41;4487173;31;20110;-77
2022/03/18 07:37:51;;;;;;;19.65;8.65;;;;;;;9.32;28.44;100833.50;4494413;31;20325;-76
2022/03/18 07:40:18;;;;;;;17.98;9.32;;;;;;;9.43;28.12;100829.81;4488568;31;20109;-77
2022/03/18 07:42:52;;;;;;;20.45;9.68;;;;;;;9.40;27.97;100831.62;4488925;31;20168;-76
2022/03/18 07:45:26;;;;;;;22.02;9.52;;;;;;;9.53;27.82;100840.19;4502726;31;20104;-76
2022/03/18 07:47:52;;;;;;;18.77;9.50;;;;;;;9.56;27.80;100838.38;4488721;31;20091;-76
2022/03/18 07:50:22;;;;;;;20.23;9.60;;;;;;;9.72;28.12;100841.59;4488182;31;20173;-78
2022/03/18 07:52:53;;;;;;;20.70;9.10;;;;;;;9.73;27.67;100842.44;4488054;31;20128;-76
2022/03/18 07:55:20;;;;;;;21.73;9.38;;;;;;;9.66;27.95;100852.22;4488745;31;20164;-76
2022/03/18 07:57:46;;;;;;;19.73;8.95;;;;;;;9.72;27.84;100853.87;4493540;31;20159;-76
2022/03/18 08:00:13;;;;;;;20.50;9.30;;;;;;;9.84;27.74;100851.03;4491184;31;20076;-77
2022/03/18 08:02:42;;;;;;;19.62;9.52;;;;;;;9.80;27.44;100858.09;4488981;31;20100;-76
2022/03/18 08:05:08;;;;;;;20.45;10.10;;;;;;;9.73;27.83;100851.19;4500413;31;20449;-77
2022/03/18 08:07:34;;;;;;;20.37;9.40;;;;;;;9.84;28.06;100859.78;4483611;31;20089;-78
2022/03/18 08:09:59;;;;;;;18.80;9.00;;;;;;;10.00;27.54;100862.12;4484542;32;20164;-78
2022/03/18 08:12:28;;;;;;;18.48;9.15;;;;;;;10.07;27.48;100857.63;4484624;32;20148;-77
2022/03/18 08:14:54;;;;;;;20.75;9.90;;;;;;;10.27;27.04;100855.44;4471506;32;20128;-77
2022/03/18 08:17:20;;;;;;;22.62;11.10;;;;;;;10.27;27.42;100854.59;4484810;32;20092;-77
2022/03/18 08:19:45;;;;;;;22.08;10.07;;;;;;;10.23;27.15;100867.81;4485495;32;20151;-77
2022/03/18 08:22:11;;;;;;;22.77;10.07;;;;;;;10.35;27.27;100868.50;4487170;31;20111;-78
2022/03/18 08:24:36;;;;;;;22.10;10.25;;;;;;;10.38;27.61;100868.44;4487104;32;20101;-78
2022/03/18 08:27:01;;;;;;;20.00;10.18;;;;;;;10.42;27.58;100875.38;4487116;31;20100;-79
2022/03/18 08:29:27;;;;;;;34.25;9.82;;;;;;;10.58;27.26;100875.94;4487120;31;20131;-78
2022/03/18 08:31:52;;;;;;;21.77;10.93;;;;;;;10.52;27.33;100876.06;4485838;32;20100;-78
2022/03/18 08:34:17;;;;;;;26.62;10.50;;;;;;;10.61;26.98;100878.50;4482736;31;20105;-77
2022/03/18 08:36:43;;;;;;;20.65;9.95;;;;;;;10.57;27.26;100884.75;4490701;31;20096;-79
2022/03/18 08:39:09;;;;;;;23.55;10.90;;;;;;;10.69;27.37;100878.34;4491955;31;20092;-78
2022/03/18 08:41:34;;;;;;;22.37;11.00;;;;;;;10.75;27.57;100886.12;4489378;31;20183;-79
2022/03/18 08:43:59;;;;;;;21.87;10.43;;;;;;;10.95;27.08;100888.31;4494226;31;20088;-80
2022/03/18 08:46:25;;;;;;;24.40;12.05;;;;;;;10.97;27.17;100891.78;4490540;31;20080;-79
2022/03/18 08:48:50;;;;;;;22.45;10.95;;;;;;;11.00;26.97;100894.34;4489958;31;20072;-78
2022/03/18 08:51:16;;;;;;;23.60;11.45;;;;;;;11.16;26.85;100884.31;4492300;31;20092;-79
2022/03/18 08:53:42;;;;;;;23.27;11.05;;;;;;;11.09;26.89;100899.44;4494245;31;20435;-79
2022/03/18 08:56:07;;;;;;;21.50;10.77;;;;;;;11.01;26.86;100902.25;4479965;32;20076;-79
2022/03/18 08:58:33;;;;;;;25.37;12.20;;;;;;;10.90;27.19;100892.84;4492216;31;20151;-79
2022/03/18 09:00:58;;;;;;;24.95;11.95;;;;;;;10.91;27.49;100900.69;4484416;31;20119;-80
2022/03/18 09:03:24;;;;;;;25.35;11.60;;;;;;;10.99;27.57;100904.06;4491948;31;20096;-79
2022/03/18 09:05:50;;;;;;;22.25;11.30;;;;;;;11.11;27.37;100902.03;4477963;31;20088;-80
2022/03/18 09:08:15;;;;;;;22.40;11.82;;;;;;;11.13;27.44;100905.50;4491559;31;20128;-77
2022/03/18 09:10:41;;;;;;;24.37;11.25;;;;;;;11.38;27.22;100904.03;4492594;31;20140;-78
2022/03/18 09:13:07;;;;;;;23.42;12.25;;;;;;;11.48;27.04;100909.94;4478017;31;20115;-77
2022/03/18 09:15:32;;;;;;;22.87;12.18;;;;;;;11.47;27.03;100910.84;4490672;31;20104;-77
2022/03/18 09:17:58;;;;;;;23.70;11.40;;;;;;;11.68;27.14;100911.22;4494234;31;20444;-76
2022/03/18 09:20:23;;;;;;;25.15;11.68;;;;;;;11.69;27.28;100907.69;4494728;31;20126;-78
2022/03/18 09:22:49;;;;;;;26.02;12.70;;;;;;;11.60;26.92;100916.69;4487173;31;20143;-79
2022/03/18 09:25:14;;;;;;;25.25;12.60;;;;;;;11.57;27.20;100912.38;4490381;31;20132;-77
2022/03/18 09:27:40;;;;;;;23.85;12.13;;;;;;;11.62;27.48;100920.16;4484689;32;20100;-75
2022/03/18 09:30:07;;;;;;;21.87;11.93;;;;;;;11.67;27.38;100930.62;4485602;31;20096;-77
2022/03/18 09:32:32;;;;;;;24.60;13.32;;;;;;;11.66;27.43;100918.31;4485075;31;20088;-77
2022/03/18 09:34:58;;;;;;;25.52;12.50;;;;;;;11.74;27.56;100914.59;4484845;32;20473;-78
2022/03/18 09:37:24;;;;;;;23.60;12.45;;;;;;;11.88;27.36;100913.34;4470640;32;20131;-78
2022/03/18 09:39:50;;;;;;;38.60;13.98;;;;;;;11.93;27.76;100914.13;4470721;32;20364;-78
2022/03/18 09:42:15;;;;;;;26.55;13.35;;;;;;;12.05;28.05;100915.59;4484979;32;20088;-78
2022/03/18 09:44:41;;;;;;;29.45;13.18;;;;;;;12.12;27.67;100914.53;4470724;32;20104;-78
2022/03/18 09:47:08;;;;;;;25.73;12.55;;;;;;;12.20;27.45;100912.53;4484945;32;20115;-79
2022/03/18 09:49:34;;;;;;;27.70;14.00;;;;;;;12.31;27.46;100912.25;4470383;32;20552;-78
2022/03/18 09:52:00;;;;;;;26.48;14.07;;;;;;;12.45;27.19;100911.84;4484781;32;20104;-79
2022/03/18 09:54:27;;;;;;;26.85;13.95;;;;;;;12.52;27.21;100916.94;4470427;32;20104;-77
2022/03/18 09:56:54;;;;;;;30.10;14.32;;;;;;;12.62;27.06;100914.03;4470321;32;20131;-78
2022/03/18 09:59:21;;;;;;;27.00;13.50;;;;;;;12.44;27.46;100921.56;4470206;32;20499;-79
2022/03/18 10:01:46;;;;;;;29.25;14.70;;;;;;;12.42;27.38;100918.09;4470338;32;20529;-77
2022/03/18 10:04:12;;;;;;;27.30;14.20;;;;;;;12.52;27.98;100921.34;4484433;32;20106;-79
2022/03/18 10:06:41;;;;;;;24.42;13.30;;;;;;;12.64;27.30;100915.72;4484557;32;20140;-78
2022/03/18 10:09:07;;;;;;;26.20;13.55;;;;;;;12.50;27.87;100921.41;4470464;32;20131;-78
2022/03/18 10:11:43;;;;;;;25.30;13.15;;;;;;;12.72;27.54;100919.00;4484319;32;20104;-78
2022/03/18 10:14:13;;;;;;;26.58;14.35;;;;;;;12.69;27.90;100921.75;4469265;32;20080;-78
2022/03/18 10:16:41;;;;;;;26.20;13.73;;;;;;;12.78;28.77;100931.16;4470050;32;20525;-77
2022/03/18 10:19:09;;;;;;;26.55;13.50;;;;;;;12.84;27.78;100930.97;4484366;32;20118;-79
2022/03/18 10:21:50;;;;;;;29.10;14.18;;;;;;;12.62;28.11;100928.09;4473928;31;20092;-78
2022/03/18 10:24:16;;;;;;;33.00;14.45;;;;;;;12.49;28.64;100929.38;4472677;31;20100;-79
2022/03/18 10:26:42;;;;;;;29.20;14.30;;;;;;;12.57;29.29;100927.38;4500062;31;20099;-78
2022/03/18 10:29:14;;;;;;;27.67;14.38;;;;;;;12.81;29.65;100930.22;4500229;31;20096;-79
2022/03/18 10:31:45;;;;;;;26.80;14.48;;;;;;;12.75;29.36;100934.78;4500089;31;20084;-77
2022/03/18 10:37:04;;;;;;;38.95;16.05;;;;;;;12.78;30.44;100931.16;4487772;31;20137;-78
2022/03/18 10:39:51;;;;;;;28.90;14.82;;;;;;;12.75;31.13;100933.91;4483665;31;20130;-77
2022/03/18 10:42:18;;;;;;;29.70;15.52;;;;;;;12.77;31.32;100929.44;4484886;32;20478;-79
2022/03/18 10:44:55;;;;;;;28.62;15.88;;;;;;;12.76;31.79;100928.56;4485828;31;20106;-79
2022/03/18 10:47:38;;;;;;;29.55;16.17;;;;;;;13.06;31.08;100931.22;4485835;31;20124;-79
2022/03/18 10:50:29;;;;;;;30.85;16.85;;;;;;;13.09;31.05;100936.41;4484822;32;20155;-79
2022/03/18 10:52:57;;;;;;;29.80;15.88;;;;;;;13.08;31.10;100931.19;4472012;32;20138;-79
2022/03/18 10:55:28;;;;;;;32.97;16.87;;;;;;;13.07;30.93;100932.06;4488673;31;20455;-84
2022/03/18 10:58:17;;;;;;;31.75;15.80;;;;;;;13.23;30.96;100930.72;4473190;32;20100;-81
2022/03/18 11:00:48;;;;;;;33.03;17.77;;;;;;;13.18;30.81;100936.13;4471252;32;20116;-81
2022/03/18 11:03:14;;;;;;;30.88;17.15;;;;;;;13.15;30.94;100938.87;4471782;32;20108;-80
2022/03/18 11:05:45;;;;;;;32.63;16.15;;;;;;;13.16;31.29;100931.81;4485638;32;20080;-80
2022/03/18 11:08:13;;;;;;;32.28;16.77;;;;;;;13.11;31.77;100929.28;4485856;32;20511;-80
2022/03/18 11:13:45;;;;;;;32.08;16.23;;;;;;;13.24;31.35;100929.78;4473364;32;20136;-80
2022/03/18 11:16:11;;;;;;;33.47;17.35;;;;;;;13.24;31.41;100926.28;4471149;32;20102;-80
2022/03/18 11:18:37;;;;;;;29.08;16.25;;;;;;;13.14;31.67;100931.00;4485406;32;20096;-80
2022/03/18 11:21:05;;;;;;;30.12;16.75;;;;;;;13.02;31.90;100923.41;4471130;32;20191;-81
2022/03/18 11:23:31;;;;;;;32.38;16.73;;;;;;;13.06;32.06;100930.38;4471382;32;20114;-81
2022/03/18 11:26:00;;;;;;;32.13;17.12;;;;;;;13.12;31.51;100924.87;4486837;31;20135;-81
2022/03/18 11:28:26;;;;;;;35.20;17.55;;;;;;;13.08;31.68;100924.09;4467490;31;20092;-80
2022/03/18 11:31:10;;;;;;;37.33;18.17;;;;;;;13.02;31.85;100916.34;4488948;31;20372;-80
2022/03/18 11:33:37;;;;;;;31.37;16.45;;;;;;;13.07;31.93;100922.34;4503295;31;20155;-81